Time;durP1;ratioP1;P1;durP2;ratioP2;P2;SDS_P1;SDS_P2;PMS_P1;PMS_P2;Temp;Humidity;BMP_temperature;BMP_pressure;BME280_temperature;BME280_humidity;BME280_pressure;Samples;Min_cycle;Max_cycle;Signal;HPM_P1;HPM_P2
2023/11/18 00:02:26;;;;;;;1.02;0.40;;;9.20;99.90;;;;;;6205860;23;20024;-77
2023/11/18 00:04:54;;;;;;;1.15;0.40;;;9.20;99.90;;;;;;6204194;23;20020;-77
2023/11/18 00:07:21;;;;;;;0.52;0.40;;;9.20;99.90;;;;;;6232077;23;20034;-77
2023/11/18 00:09:48;;;;;;;0.63;0.20;;;9.20;99.90;;;;;;6205680;23;20020;-77
2023/11/18 00:12:15;;;;;;;0.32;0.32;;;9.20;99.90;;;;;;6206212;23;20454;-77
2023/11/18 00:14:42;;;;;;;0.95;0.40;;;9.20;99.90;;;;;;6230587;23;20926;-78
2023/11/18 00:17:09;;;;;;;0.55;0.20;;;9.20;99.90;;;;;;6181263;23;20066;-77
2023/11/18 00:19:36;;;;;;;0.47;0.30;;;9.10;99.90;;;;;;6178946;23;20407;-78
2023/11/18 00:22:03;;;;;;;0.70;0.40;;;9.10;99.90;;;;;;6180613;23;20174;-77
2023/11/18 00:24:34;;;;;;;0.68;0.22;;;9.10;99.90;;;;;;6205299;23;20132;-77
2023/11/18 00:27:05;;;;;;;0.82;0.50;;;9.10;99.90;;;;;;6205687;23;20031;-77
2023/11/18 00:29:38;;;;;;;0.50;0.22;;;9.10;99.90;;;;;;6204019;23;20409;-77
2023/11/18 00:32:05;;;;;;;0.90;0.30;;;9.10;99.90;;;;;;6227531;23;20099;-77
2023/11/18 00:34:33;;;;;;;0.65;0.35;;;9.10;99.90;;;;;;6203462;23;20127;-77
2023/11/18 00:37:00;;;;;;;1.40;0.50;;;9.10;99.90;;;;;;6205370;23;20031;-77
2023/11/18 00:39:27;;;;;;;0.75;0.30;;;9.10;99.90;;;;;;6204473;23;20046;-77
2023/11/18 00:41:55;;;;;;;0.68;0.30;;;9.10;99.90;;;;;;6205784;23;20032;-77
2023/11/18 00:44:22;;;;;;;0.68;0.30;;;9.10;99.90;;;;;;6230221;23;20350;-77
2023/11/18 00:46:49;;;;;;;1.52;0.50;;;9.10;99.90;;;;;;6205454;23;20043;-77
2023/11/18 00:49:17;;;;;;;0.70;0.40;;;9.10;99.90;;;;;;6181042;23;20658;-77
2023/11/18 00:51:44;;;;;;;0.40;0.30;;;9.10;99.90;;;;;;6203853;23;20412;-77
2023/11/18 00:54:12;;;;;;;0.65;0.28;;;9.10;1.00;;;;;;6179935;23;20074;-77
2023/11/18 00:56:39;;;;;;;0.40;0.30;;;9.10;1.00;;;;;;6205308;23;20126;-77
2023/11/18 00:59:06;;;;;;;0.52;0.30;;;9.10;1.00;;;;;;6205536;23;20020;-77
2023/11/18 01:01:33;;;;;;;0.52;0.47;;;9.10;1.00;;;;;;6205473;23;20051;-77
2023/11/18 01:04:00;;;;;;;1.05;0.50;;;9.10;33.80;;;;;;6204861;23;20024;-77
2023/11/18 01:06:27;;;;;;;0.30;0.30;;;9.10;99.90;;;;;;6203539;23;20012;-77
2023/11/18 01:08:54;;;;;;;0.80;0.40;;;9.10;99.90;;;;;;6205016;23;20465;-77
2023/11/18 01:11:22;;;;;;;0.93;0.50;;;9.00;1.00;;;;;;6230640;23;20028;-77
2023/11/18 01:13:54;;;;;;;1.23;0.60;;;9.00;94.00;;;;;;6230009;23;20036;-76
2023/11/18 01:16:21;;;;;;;1.08;0.50;;;9.00;99.90;;;;;;6205581;23;20028;-77
2023/11/18 01:18:48;;;;;;;0.70;0.50;;;9.00;1.00;;;;;;6232783;23;20032;-77
2023/11/18 01:21:17;;;;;;;0.60;0.40;;;8.90;83.30;;;;;;6203503;23;20024;-77
2023/11/18 01:23:44;;;;;;;0.90;0.55;;;8.90;99.90;;;;;;6205048;23;20068;-77
2023/11/18 01:26:15;;;;;;;0.57;0.40;;;8.90;99.90;;;;;;6232025;23;20020;-78
2023/11/18 01:28:43;;;;;;;0.88;0.70;;;8.90;1.00;;;;;;6232923;23;20022;-77
2023/11/18 01:31:10;;;;;;;1.00;0.57;;;9.00;1.00;;;;;;6231629;23;20035;-77
2023/11/18 01:33:40;;;;;;;1.33;0.55;;;8.90;2.10;;;;;;6233341;23;20020;-77
2023/11/18 01:36:10;;;;;;;1.02;0.40;;;8.90;15.50;;;;;;6205613;23;20052;-77
2023/11/18 01:38:37;;;;;;;0.75;0.40;;;8.90;99.90;;;;;;6232177;23;20032;-77
2023/11/18 01:41:05;;;;;;;1.00;0.63;;;8.90;99.90;;;;;;6231983;23;20020;-77
2023/11/18 01:43:32;;;;;;;0.82;0.40;;;8.90;99.90;;;;;;6182125;23;20024;-77
2023/11/18 01:46:03;;;;;;;0.68;0.50;;;8.90;99.90;;;;;;6207688;23;20027;-77
2023/11/18 01:48:33;;;;;;;0.55;0.40;;;8.90;1.00;;;;;;6186709;23;20086;-77
2023/11/18 01:50:59;;;;;;;1.15;0.60;;;8.90;80.60;;;;;;6235171;23;20035;-77
2023/11/18 01:53:27;;;;;;;0.43;0.40;;;8.90;99.90;;;;;;6186110;23;20032;-78
2023/11/18 01:55:54;;;;;;;0.85;0.50;;;9.00;99.90;;;;;;6186431;23;20028;-77
2023/11/18 01:58:22;;;;;;;0.57;0.50;;;9.00;99.90;;;;;;6186457;23;20394;-77
2023/11/18 02:00:51;;;;;;;0.70;0.40;;;9.00;1.00;;;;;;6236411;23;20415;-77
2023/11/18 02:03:18;;;;;;;1.98;1.50;;;9.00;59.90;;;;;;6236640;23;20024;-77
2023/11/18 02:05:45;;;;;;;0.30;0.30;;;8.90;99.90;;;;;;6236856;23;20092;-77
2023/11/18 02:08:14;;;;;;;0.45;0.30;;;8.90;99.90;;;;;;6210539;23;20078;-77
2023/11/18 02:10:50;;;;;;;0.75;0.40;;;9.00;99.90;;;;;;6212010;23;20038;-77
2023/11/18 02:13:29;;;;;;;0.45;0.30;;;8.90;1.00;;;;;;6210735;23;20024;-77
2023/11/18 02:15:59;;;;;;;0.20;0.20;;;9.00;17.90;;;;;;6235689;23;20026;-77
2023/11/18 02:18:27;;;;;;;0.80;0.50;;;9.00;94.00;;;;;;6236250;23;20055;-77
2023/11/18 02:20:57;;;;;;;0.40;0.30;;;9.00;99.90;;;;;;6235186;23;20478;-77
2023/11/18 02:23:27;;;;;;;0.45;0.30;;;9.00;99.90;;;;;;6185443;23;20028;-77
2023/11/18 02:25:57;;;;;;;0.75;0.50;;;9.00;99.90;;;;;;6211058;23;20103;-77
2023/11/18 02:28:25;;;;;;;0.32;0.30;;;9.00;1.00;;;;;;6211839;23;20098;-77
2023/11/18 02:30:56;;;;;;;0.68;0.30;;;9.00;1.00;;;;;;6186085;23;20026;-77
2023/11/18 02:33:40;;;;;;;0.45;0.35;;;9.10;49.80;;;;;;6236417;23;20094;-77
2023/11/18 02:36:46;;;;;;;0.43;0.25;;;9.10;95.80;;;;;;6183957;23;20068;-77
2023/11/18 02:39:21;;;;;;;1.08;0.43;;;9.10;99.90;;;;;;6119330;23;20033;-77
2023/11/18 02:41:51;;;;;;;0.68;0.20;;;9.10;99.90;;;;;;6097502;23;20022;-76
2023/11/18 02:44:20;;;;;;;1.27;0.32;;;9.20;99.90;;;;;;6148462;23;20086;-77
2023/11/18 02:46:48;;;;;;;0.60;0.40;;;9.20;99.90;;;;;;6211490;23;20089;-77
2023/11/18 02:49:16;;;;;;;0.50;0.40;;;9.20;1.00;;;;;;6212199;23;20024;-77
2023/11/18 02:51:45;;;;;;;1.17;0.80;;;9.30;96.60;;;;;;6209487;23;20027;-77
2023/11/18 02:54:12;;;;;;;0.50;0.30;;;9.30;99.90;;;;;;6236435;23;20470;-77
2023/11/18 02:56:39;;;;;;;0.63;0.40;;;9.30;99.90;;;;;;6236587;23;20032;-77
2023/11/18 02:59:06;;;;;;;0.73;0.40;;;9.40;99.90;;;;;;6212011;23;20024;-77
2023/11/18 03:01:39;;;;;;;0.43;0.38;;;9.40;99.90;;;;;;6187288;23;20126;-77
2023/11/18 03:04:06;;;;;;;0.35;0.20;;;9.40;99.90;;;;;;6211450;23;20024;-77
2023/11/18 03:06:33;;;;;;;0.52;0.28;;;9.50;99.90;;;;;;6209951;23;20350;-77
2023/11/18 03:09:00;;;;;;;0.90;0.40;;;9.50;99.90;;;;;;6238214;23;20074;-77
2023/11/18 03:11:29;;;;;;;0.20;0.20;;;9.50;99.90;;;;;;6211352;23;20477;-79
2023/11/18 03:13:57;;;;;;;0.77;0.40;;;9.60;99.90;;;;;;6212032;23;20619;-78
2023/11/18 03:16:24;;;;;;;0.88;0.40;;;9.60;1.00;;;;;;6235979;23;20070;-77
2023/11/18 03:18:51;;;;;;;0.80;0.30;;;9.60;1.00;;;;;;6211283;23;20034;-78
2023/11/18 03:21:21;;;;;;;0.73;0.40;;;9.60;1.00;;;;;;6208894;23;20039;-77
2023/11/18 03:23:48;;;;;;;0.20;0.20;;;9.70;1.00;;;;;;6211713;23;20074;-76
2023/11/18 03:26:15;;;;;;;0.90;0.40;;;9.70;99.90;;;;;;6235471;23;20027;-77
2023/11/18 03:28:41;;;;;;;0.45;0.40;;;9.70;99.90;;;;;;6211219;23;20039;-77
2023/11/18 03:31:09;;;;;;;0.55;0.52;;;9.70;99.90;;;;;;6234764;23;20023;-77
2023/11/18 03:33:36;;;;;;;0.40;0.30;;;9.70;99.90;;;;;;6210443;23;20091;-77
2023/11/18 03:36:03;;;;;;;0.47;0.40;;;9.80;99.90;;;;;;6209555;23;20024;-77
2023/11/18 03:38:30;;;;;;;0.80;0.35;;;9.80;99.90;;;;;;6235343;23;20024;-78
2023/11/18 03:40:58;;;;;;;0.20;0.20;;;9.80;99.90;;;;;;6237154;23;20024;-77
2023/11/18 03:43:25;;;;;;;1.27;0.45;;;9.90;1.00;;;;;;6211226;23;20020;-78
2023/11/18 03:45:56;;;;;;;1.00;0.40;;;9.90;1.00;;;;;;6236758;23;20024;-77
2023/11/18 03:48:23;;;;;;;0.40;0.40;;;9.90;1.00;;;;;;6211908;23;20020;-78
2023/11/18 03:50:51;;;;;;;0.55;0.30;;;9.90;1.00;;;;;;6233892;23;20577;-77
2023/11/18 03:53:18;;;;;;;0.60;0.40;;;10.00;99.90;;;;;;6234944;23;20094;-78
2023/11/18 03:55:45;;;;;;;0.38;0.20;;;10.00;99.90;;;;;;6210277;23;20055;-77
2023/11/18 03:58:13;;;;;;;0.75;0.40;;;10.00;99.90;;;;;;6210508;23;20052;-77
2023/11/18 04:00:40;;;;;;;0.22;0.20;;;10.00;99.90;;;;;;6237200;23;20082;-77
2023/11/18 04:03:07;;;;;;;0.40;0.30;;;10.10;99.90;;;;;;6210264;23;20028;-77
2023/11/18 04:05:34;;;;;;;1.05;0.40;;;10.10;99.90;;;;;;6235681;23;20020;-77
2023/11/18 04:08:01;;;;;;;0.55;0.40;;;10.10;99.90;;;;;;6236554;23;20091;-77
2023/11/18 04:10:28;;;;;;;0.63;0.30;;;10.10;99.90;;;;;;6209428;23;20020;-77
2023/11/18 04:12:55;;;;;;;0.20;0.20;;;10.10;99.90;;;;;;6235057;23;20017;-77
2023/11/18 04:15:22;;;;;;;0.73;0.35;;;10.10;99.90;;;;;;6237196;23;20028;-78
2023/11/18 04:17:49;;;;;;;0.10;0.10;;;10.20;1.00;;;;;;6210183;23;20021;-77
2023/11/18 04:20:16;;;;;;;0.20;0.15;;;10.20;1.00;;;;;;6184015;23;20107;-77
2023/11/18 04:22:43;;;;;;;0.10;0.10;;;10.20;1.00;;;;;;6209739;23;20039;-77
2023/11/18 04:25:11;;;;;;;0.20;0.20;;;10.20;1.00;;;;;;6236199;23;20051;-77
2023/11/18 04:27:38;;;;;;;0.20;0.20;;;10.20;1.00;;;;;;6235260;23;20020;-76
2023/11/18 04:30:08;;;;;;;0.10;0.10;;;10.20;1.00;;;;;;6235372;23;20024;-77
2023/11/18 04:32:35;;;;;;;0.10;0.10;;;10.30;1.00;;;;;;6236514;23;20020;-76
2023/11/18 04:35:08;;;;;;;0.10;0.10;;;10.30;8.70;;;;;;6208760;23;20032;-76
2023/11/18 04:37:35;;;;;;;0.20;0.20;;;10.20;25.10;;;;;;6209507;23;20047;-76
2023/11/18 04:40:03;;;;;;;0.20;0.20;;;10.30;99.90;;;;;;6209951;23;20356;-77
2023/11/18 04:42:30;;;;;;;0.10;0.10;;;10.30;99.90;;;;;;6210579;23;20027;-76
2023/11/18 04:44:57;;;;;;;0.15;0.15;;;10.30;99.90;;;;;;6235057;23;20090;-77
2023/11/18 04:47:27;;;;;;;0.10;0.10;;;10.30;99.90;;;;;;6209797;23;20055;-76
2023/11/18 04:49:54;;;;;;;0.40;0.20;;;10.40;99.90;;;;;;6208425;23;20078;-76
2023/11/18 04:52:21;;;;;;;0.20;0.20;;;10.40;99.90;;;;;;6184970;23;20016;-77
2023/11/18 04:54:47;;;;;;;0.10;0.10;;;10.40;99.90;;;;;;6210010;23;20291;-77
2023/11/18 04:57:15;;;;;;;0.10;0.10;;;10.40;99.90;;;;;;6210356;23;20047;-77
2023/11/18 04:59:45;;;;;;;0.20;0.20;;;10.50;99.90;;;;;;6235106;23;20020;-77
2023/11/18 05:02:11;;;;;;;0.10;0.10;;;10.50;99.90;;;;;;6185244;23;20024;-77
2023/11/18 05:04:38;;;;;;;0.10;0.10;;;10.50;99.90;;;;;;6208804;23;20207;-77
2023/11/18 05:07:06;;;;;;;0.47;0.32;;;10.50;99.90;;;;;;6187200;23;20016;-77
2023/11/18 05:09:34;;;;;;;0.15;0.15;;;10.60;99.90;;;;;;6187452;23;20103;-77
2023/11/18 05:12:01;;;;;;;0.10;0.10;;;10.60;99.90;;;;;;6212836;23;20027;-77
2023/11/18 05:14:28;;;;;;;0.10;0.10;;;10.60;99.90;;;;;;6236711;23;20417;-77
2023/11/18 05:16:55;;;;;;;0.10;0.10;;;10.70;99.90;;;;;;6212531;23;20024;-77
2023/11/18 05:19:22;;;;;;;0.10;0.10;;;10.70;99.90;;;;;;6237543;23;20066;-78
2023/11/18 05:21:50;;;;;;;0.20;0.20;;;10.70;99.90;;;;;;6210025;23;20024;-78
2023/11/18 05:24:17;;;;;;;0.30;0.15;;;10.70;99.90;;;;;;6237022;23;20082;-78
2023/11/18 05:26:44;;;;;;;0.20;0.20;;;10.80;99.90;;;;;;6238411;23;20020;-78
2023/11/18 05:29:16;;;;;;;0.38;0.20;;;10.80;99.90;;;;;;6212858;23;20026;-77
2023/11/18 05:31:43;;;;;;;0.30;0.20;;;10.80;99.90;;;;;;6212565;23;20020;-77
2023/11/18 05:34:11;;;;;;;0.10;0.10;;;10.80;99.90;;;;;;6212480;23;20059;-77
2023/11/18 05:36:40;;;;;;;0.10;0.10;;;10.80;99.90;;;;;;6210588;23;20023;-77
2023/11/18 05:39:09;;;;;;;0.63;0.30;;;10.90;99.90;;;;;;6187150;23;20031;-77
2023/11/18 05:41:39;;;;;;;0.55;0.20;;;10.90;99.90;;;;;;6187526;23;20016;-77
2023/11/18 05:44:09;;;;;;;0.10;0.10;;;10.90;99.90;;;;;;6212838;23;20024;-76
2023/11/18 05:46:36;;;;;;;0.10;0.10;;;10.90;99.90;;;;;;6212204;23;20042;-77
2023/11/18 05:49:07;;;;;;;0.10;0.10;;;10.90;99.90;;;;;;6209113;23;20541;-77
2023/11/18 05:51:34;;;;;;;0.20;0.20;;;11.00;99.90;;;;;;6208719;23;20074;-77
2023/11/18 05:54:02;;;;;;;0.63;0.10;;;11.00;99.90;;;;;;6234776;23;20032;-76
2023/11/18 05:56:29;;;;;;;0.45;0.20;;;11.00;1.00;;;;;;6234897;23;20017;-76
2023/11/18 05:58:56;;;;;;;0.32;0.20;;;11.00;1.00;;;;;;6235819;23;20024;-76
2023/11/18 06:01:23;;;;;;;0.10;0.10;;;11.00;1.00;;;;;;6236015;23;20058;-77
2023/11/18 06:03:50;;;;;;;0.22;0.10;;;11.00;1.00;;;;;;6181752;23;20050;-77
2023/11/18 06:06:18;;;;;;;0.20;0.20;;;11.00;1.00;;;;;;6230755;23;20016;-76
2023/11/18 06:08:50;;;;;;;0.20;0.20;;;11.00;1.00;;;;;;6232565;23;20086;-77
2023/11/18 06:11:18;;;;;;;0.17;0.10;;;11.00;1.00;;;;;;6206509;23;20016;-77
2023/11/18 06:13:47;;;;;;;1.08;0.25;;;11.00;1.00;;;;;;6207449;23;20027;-76
2023/11/18 06:16:15;;;;;;;0.30;0.20;;;11.00;1.00;;;;;;6206150;23;20450;-77
2023/11/18 06:18:44;;;;;;;0.13;0.10;;;11.10;1.00;;;;;;6184425;23;20031;-77
2023/11/18 06:21:12;;;;;;;0.10;0.10;;;11.10;1.00;;;;;;6209474;23;20020;-77
2023/11/18 06:23:40;;;;;;;0.10;0.10;;;11.10;1.00;;;;;;6233976;23;20020;-77
2023/11/18 06:26:10;;;;;;;0.13;0.13;;;11.10;1.00;;;;;;6206265;23;20024;-76
2023/11/18 06:28:41;;;;;;;0.10;0.10;;;11.10;1.00;;;;;;6182615;23;20282;-76
2023/11/18 06:31:11;;;;;;;0.20;0.20;;;11.10;1.00;;;;;;6182240;23;20031;-77
2023/11/18 06:33:45;;;;;;;0.50;0.30;;;11.10;1.00;;;;;;6211309;23;20023;-77
2023/11/18 06:36:16;;;;;;;0.20;0.20;;;11.20;1.00;;;;;;6209041;23;20055;-76
2023/11/18 06:38:44;;;;;;;0.90;0.20;;;11.20;1.00;;;;;;6236855;23;20423;-76
2023/11/18 06:41:13;;;;;;;0.20;0.20;;;11.20;1.00;;;;;;6207764;23;20019;-77
2023/11/18 06:43:51;;;;;;;0.20;0.20;;;11.20;1.00;;;;;;6206863;23;20024;-76
2023/11/18 06:46:22;;;;;;;0.70;0.25;;;11.20;1.00;;;;;;6183846;23;20488;-77
2023/11/18 06:48:49;;;;;;;0.30;0.30;;;11.20;1.00;;;;;;6206973;23;20027;-76
2023/11/18 06:51:16;;;;;;;0.17;0.17;;;11.20;1.00;;;;;;6203398;23;20166;-75
2023/11/18 06:53:44;;;;;;;0.25;0.20;;;11.30;1.00;;;;;;6229895;23;20354;-76
2023/11/18 06:56:11;;;;;;;0.20;0.20;;;11.30;1.00;;;;;;6204173;23;20542;-76
2023/11/18 06:58:42;;;;;;;0.55;0.30;;;11.30;1.00;;;;;;6181261;23;20103;-76
2023/11/18 07:01:13;;;;;;;0.32;0.20;;;11.30;1.00;;;;;;6230309;23;20020;-76
2023/11/18 07:03:44;;;;;;;0.17;0.17;;;11.30;1.00;;;;;;6181257;23;20019;-76
2023/11/18 07:06:14;;;;;;;0.10;0.10;;;11.30;1.00;;;;;;6204458;23;20693;-76
2023/11/18 07:08:41;;;;;;;0.10;0.10;;;11.30;1.00;;;;;;6209391;23;20055;-75
2023/11/18 07:11:07;;;;;;;0.20;0.20;;;11.30;1.00;;;;;;6208065;23;20016;-76
2023/11/18 07:13:34;;;;;;;0.35;0.30;;;11.40;1.00;;;;;;6210379;23;20086;-76
2023/11/18 07:16:02;;;;;;;0.80;0.50;;;11.40;1.00;;;;;;6209474;23;20023;-76
2023/11/18 07:18:32;;;;;;;0.30;0.30;;;11.40;1.60;;;;;;6209910;23;20323;-77
2023/11/18 07:21:04;;;;;;;0.20;0.20;;;11.40;6.50;;;;;;6208715;23;20021;-76
2023/11/18 07:23:35;;;;;;;0.20;0.20;;;11.40;15.70;;;;;;6209445;23;20028;-76
2023/11/18 07:26:05;;;;;;;0.30;0.30;;;11.40;20.60;;;;;;6233454;23;20086;-75
2023/11/18 07:28:32;;;;;;;0.30;0.20;;;11.40;29.10;;;;;;6232480;23;20099;-76
2023/11/18 07:30:59;;;;;;;0.10;0.10;;;11.50;47.60;;;;;;6179925;23;20076;-76
2023/11/18 07:33:26;;;;;;;0.10;0.10;;;11.50;52.40;;;;;;6230441;23;20089;-76
2023/11/18 07:35:54;;;;;;;0.10;0.10;;;11.50;48.10;;;;;;6203530;23;20050;-76
2023/11/18 07:38:21;;;;;;;0.10;0.10;;;11.50;35.80;;;;;;6235686;23;20024;-76
2023/11/18 07:40:48;;;;;;;0.32;0.30;;;11.50;52.20;;;;;;6208889;23;20082;-76
2023/11/18 07:43:15;;;;;;;0.20;0.20;;;11.50;42.50;;;;;;6230865;23;20035;-76
2023/11/18 07:45:42;;;;;;;0.20;0.20;;;11.50;60.00;;;;;;6205017;23;20024;-76
2023/11/18 07:48:11;;;;;;;0.15;0.15;;;11.60;64.30;;;;;;6232467;23;20353;-76
2023/11/18 07:50:41;;;;;;;0.20;0.20;;;11.60;71.50;;;;;;6204801;23;20027;-76
2023/11/18 07:53:07;;;;;;;0.10;0.10;;;11.60;68.10;;;;;;6235113;23;20020;-76
2023/11/18 07:55:34;;;;;;;0.15;0.15;;;11.60;81.20;;;;;;6208726;23;20655;-76
2023/11/18 07:58:03;;;;;;;0.10;0.10;;;11.70;89.50;;;;;;6208353;23;20024;-76
2023/11/18 08:00:30;;;;;;;0.20;0.17;;;11.70;86.30;;;;;;6234682;23;20036;-77
2023/11/18 08:03:00;;;;;;;0.10;0.10;;;11.70;84.80;;;;;;6228465;23;20022;-76
2023/11/18 08:05:28;;;;;;;0.10;0.10;;;11.80;85.40;;;;;;6202523;23;20107;-76
2023/11/18 08:07:54;;;;;;;0.20;0.20;;;11.80;95.70;;;;;;6232175;23;20215;-76
2023/11/18 08:10:21;;;;;;;0.10;0.10;;;11.80;97.90;;;;;;6208291;23;20023;-77
2023/11/18 08:12:48;;;;;;;0.10;0.10;;;11.80;99.90;;;;;;6231501;23;20024;-77
2023/11/18 08:15:15;;;;;;;0.10;0.10;;;11.90;99.90;;;;;;6231415;23;20078;-76
2023/11/18 08:17:42;;;;;;;0.10;0.10;;;12.00;99.90;;;;;;6235724;23;20027;-76
2023/11/18 08:20:16;;;;;;;0.10;0.10;;;12.00;99.90;;;;;;6207571;23;20020;-77
2023/11/18 08:22:46;;;;;;;0.10;0.10;;;12.00;99.90;;;;;;6235484;23;20070;-76
2023/11/18 08:25:14;;;;;;;0.10;0.10;;;12.10;99.90;;;;;;6231712;23;20549;-77
2023/11/18 08:27:41;;;;;;;0.20;0.20;;;12.10;99.90;;;;;;6197017;23;20024;-76
2023/11/18 08:30:12;;;;;;;0.10;0.10;;;12.20;99.90;;;;;;6230375;23;20074;-76
2023/11/18 08:32:41;;;;;;;0.10;0.10;;;12.10;99.90;;;;;;6207822;23;20020;-77
2023/11/18 08:35:09;;;;;;;0.28;0.15;;;12.20;99.90;;;;;;6181703;23;20203;-77
2023/11/18 08:37:37;;;;;;;0.10;0.10;;;12.30;99.90;;;;;;6208727;23;20421;-78
2023/11/18 08:40:06;;;;;;;0.20;0.13;;;12.30;99.90;;;;;;6234087;23;20051;-77
2023/11/18 08:42:34;;;;;;;0.20;0.20;;;12.30;99.90;;;;;;6233568;23;20476;-76
2023/11/18 08:45:01;;;;;;;0.13;0.10;;;12.30;99.90;;;;;;6209237;23;20374;-77
2023/11/18 08:47:31;;;;;;;0.10;0.10;;;12.40;99.90;;;;;;6233082;23;20047;-77
2023/11/18 08:50:09;;;;;;;0.10;0.10;;;12.50;99.90;;;;;;6207497;23;20020;-76
2023/11/18 08:52:43;;;;;;;0.10;0.10;;;12.50;99.90;;;;;;6232686;23;20032;-77
2023/11/18 08:58:51;;;;;;;0.10;0.10;;;12.60;99.90;;;;;;6234749;23;20078;-78
2023/11/18 09:01:05;;;;;;;0.20;0.20;;;12.70;99.90;;;;;;6221333;23;20031;-78
2023/11/18 09:03:36;;;;;;;0.10;0.10;;;12.70;99.90;;;;;;6231743;23;20401;-77
2023/11/18 09:06:05;;;;;;;0.10;0.10;;;12.80;99.90;;;;;;6207895;23;20518;-77
2023/11/18 09:08:38;;;;;;;0.30;0.10;;;12.90;99.90;;;;;;6231951;23;20020;-75
2023/11/18 09:11:06;;;;;;;0.10;0.10;;;12.90;99.90;;;;;;6206038;23;20083;-83
2023/11/18 09:13:34;;;;;;;0.10;0.10;;;13.00;99.90;;;;;;6208287;23;20485;-82
2023/11/18 09:16:08;;;;;;;0.10;0.10;;;13.00;99.90;;;;;;6207976;23;20036;-82
2023/11/18 09:18:38;;;;;;;0.17;0.17;;;13.10;99.90;;;;;;6210881;23;20020;-83
2023/11/18 09:21:14;;;;;;;;;;;13.10;99.90;;;;;;6187093;23;20028;-82
2023/11/18 09:23:42;;;;;;;0.13;0.13;;;13.20;99.90;;;;;;6234334;23;19942;-78
2023/11/18 09:26:10;;;;;;;0.10;0.10;;;13.20;99.90;;;;;;6234588;23;20024;-78
2023/11/18 09:28:37;;;;;;;0.10;0.10;;;13.30;99.90;;;;;;6209270;23;20370;-78
2023/11/18 09:31:05;;;;;;;0.00;0.00;;;13.30;99.90;;;;;;6183496;23;20052;-78
2023/11/18 09:33:32;;;;;;;0.10;0.10;;;13.40;99.90;;;;;;6208922;23;20434;-77
2023/11/18 09:36:00;;;;;;;0.17;0.17;;;13.40;90.80;;;;;;6203021;23;20135;-77
2023/11/18 09:38:27;;;;;;;0.10;0.10;;;13.40;91.30;;;;;;6207992;23;20020;-79
2023/11/18 09:40:54;;;;;;;0.10;0.10;;;13.40;60.50;;;;;;6205281;23;20028;-78
2023/11/18 09:43:24;;;;;;;0.00;0.00;;;13.50;67.00;;;;;;6229724;23;20016;-78
2023/11/18 09:45:56;;;;;;;0.10;0.10;;;13.60;73.60;;;;;;6179662;23;20081;-77
2023/11/18 09:48:26;;;;;;;0.20;0.10;;;13.60;88.90;;;;;;6184194;23;20099;-78
2023/11/18 09:50:53;;;;;;;0.10;0.10;;;13.70;79.70;;;;;;6232226;23;20021;-78
2023/11/18 09:53:20;;;;;;;0.17;0.17;;;13.70;61.50;;;;;;6231775;23;20114;-77
2023/11/18 09:55:55;;;;;;;0.10;0.10;;;13.70;60.20;;;;;;6232493;23;20031;-78
2023/11/18 09:58:24;;;;;;;0.10;0.10;;;13.80;50.30;;;;;;6207444;23;20490;-77
2023/11/18 10:00:52;;;;;;;0.88;0.20;;;13.80;40.50;;;;;;6207507;23;20035;-78
2023/11/18 10:03:19;;;;;;;0.55;0.20;;;13.80;41.00;;;;;;6180851;23;20106;-78
2023/11/18 10:05:45;;;;;;;0.13;0.10;;;13.90;33.50;;;;;;6202319;23;20619;-77
2023/11/18 10:08:16;;;;;;;0.20;0.20;;;13.90;22.60;;;;;;6206163;23;20094;-78
2023/11/18 10:10:45;;;;;;;0.20;0.20;;;14.00;8.50;;;;;;6210129;23;20043;-77
2023/11/18 10:13:22;;;;;;;0.63;0.10;;;14.00;1.00;;;;;;6209840;23;20024;-78
2023/11/18 10:15:52;;;;;;;0.22;0.20;;;14.10;1.00;;;;;;6213344;23;20016;-78
2023/11/18 10:18:23;;;;;;;0.28;0.10;;;14.20;1.00;;;;;;6211194;23;20050;-78
2023/11/18 10:20:51;;;;;;;0.00;0.00;;;14.20;1.00;;;;;;6209357;23;20024;-78
2023/11/18 10:23:21;;;;;;;0.30;0.30;;;14.30;1.00;;;;;;6209799;23;20027;-78
2023/11/18 10:25:58;;;;;;;0.10;0.10;;;14.30;1.00;;;;;;6212170;23;20020;-78
2023/11/18 10:28:29;;;;;;;0.10;0.10;;;14.30;1.00;;;;;;6187290;23;20035;-78
2023/11/18 10:31:06;;;;;;;0.10;0.10;;;14.30;1.00;;;;;;6210310;23;20096;-78
2023/11/18 10:33:38;;;;;;;0.10;0.10;;;14.30;1.00;;;;;;6187655;23;20024;-78
2023/11/18 10:36:12;;;;;;;0.20;0.20;;;14.30;1.00;;;;;;6209629;23;20221;-77
2023/11/18 10:38:49;;;;;;;0.20;0.10;;;14.40;1.00;;;;;;6237533;23;20043;-77
2023/11/18 10:41:18;;;;;;;0.10;0.10;;;14.40;1.00;;;;;;6235452;23;20483;-78
2023/11/18 10:43:45;;;;;;;0.22;0.20;;;14.40;1.00;;;;;;6210991;23;20103;-77
2023/11/18 10:46:13;;;;;;;0.08;0.08;;;14.40;1.00;;;;;;6210411;23;20358;-77
2023/11/18 10:48:49;;;;;;;0.30;0.20;;;14.40;1.00;;;;;;6236153;23;20401;-78
2023/11/18 10:51:20;;;;;;;0.10;0.10;;;14.50;1.00;;;;;;6210336;23;20024;-78
2023/11/18 10:53:58;;;;;;;0.15;0.15;;;14.50;1.00;;;;;;6235450;23;20442;-78
2023/11/18 10:56:28;;;;;;;0.10;0.10;;;14.50;1.00;;;;;;6210650;23;20028;-77
2023/11/18 10:58:58;;;;;;;0.10;0.10;;;14.50;1.00;;;;;;6233510;23;20447;-78
2023/11/18 11:01:32;;;;;;;0.38;0.20;;;14.50;1.00;;;;;;6209873;23;20411;-78
2023/11/18 11:03:59;;;;;;;0.30;0.10;;;14.50;1.00;;;;;;6231587;23;20513;-79
2023/11/18 11:06:30;;;;;;;0.40;0.22;;;14.50;1.00;;;;;;6232166;23;20024;-78
2023/11/18 11:09:00;;;;;;;0.10;0.10;;;14.50;1.00;;;;;;6210646;23;20035;-78
2023/11/18 11:11:37;;;;;;;0.10;0.10;;;14.60;99.90;;;;;;6208003;23;20028;-77
2023/11/18 11:14:05;;;;;;;0.20;0.20;;;14.70;99.90;;;;;;6235693;23;20043;-78
2023/11/18 11:16:44;;;;;;;0.20;0.20;;;14.70;99.90;;;;;;6186194;23;20028;-77
2023/11/18 11:19:26;;;;;;;0.20;0.20;;;14.70;99.90;;;;;;6210439;23;20074;-78
2023/11/18 11:22:15;;;;;;;0.17;0.17;;;14.80;99.90;;;;;;6210001;23;20020;-77
2023/11/18 11:24:59;;;;;;;0.10;0.10;;;14.90;99.90;;;;;;6235442;23;20028;-78
2023/11/18 11:27:35;;;;;;;0.38;0.20;;;15.00;19.70;;;;;;6235635;23;20028;-78
2023/11/18 11:30:10;;;;;;;0.20;0.20;;;15.00;1.00;;;;;;6234960;23;20349;-78
2023/11/18 11:32:51;;;;;;;0.20;0.20;;;15.00;1.00;;;;;;6204934;23;20036;-78
2023/11/18 11:35:30;;;;;;;0.35;0.20;;;15.00;99.90;;;;;;6204100;23;20024;-77
2023/11/18 11:38:03;;;;;;;0.30;0.30;;;15.00;99.90;;;;;;6204615;23;20184;-78
2023/11/18 11:40:31;;;;;;;0.13;0.10;;;15.00;99.90;;;;;;6203587;23;20027;-78
2023/11/18 11:43:01;;;;;;;0.20;0.20;;;15.00;99.90;;;;;;6204645;23;20024;-78
2023/11/18 11:45:30;;;;;;;0.40;0.20;;;15.00;99.90;;;;;;6204739;23;20091;-78
2023/11/18 11:48:15;;;;;;;0.15;0.15;;;15.00;99.90;;;;;;6179133;23;20474;-78
2023/11/18 11:51:01;;;;;;;0.10;0.10;;;15.00;99.90;;;;;;6181763;23;20063;-79
2023/11/18 11:53:32;;;;;;;0.20;0.20;;;15.10;99.90;;;;;;6204177;23;20470;-79
2023/11/18 11:56:07;;;;;;;0.57;0.20;;;15.00;99.90;;;;;;6205357;23;20142;-78
2023/11/18 11:58:38;;;;;;;0.10;0.10;;;15.10;99.90;;;;;;6205398;23;20454;-78
2023/11/18 12:01:32;;;;;;;0.10;0.10;;;15.20;99.90;;;;;;6178877;23;20033;-79
2023/11/18 12:04:06;;;;;;;0.10;0.10;;;15.20;99.90;;;;;;6204241;23;20475;-78
2023/11/18 12:06:35;;;;;;;0.10;0.10;;;15.30;1.00;;;;;;6202937;23;20039;-78
2023/11/18 12:09:06;;;;;;;0.38;0.10;;;15.30;99.90;;;;;;6206679;23;20042;-79
2023/11/18 12:11:39;;;;;;;0.10;0.10;;;15.20;99.90;;;;;;6204517;23;20611;-78
2023/11/18 12:14:12;;;;;;;;;;;15.20;99.90;;;;;;6176798;23;20029;-78
2023/11/18 12:17:14;;;;;;;;;;;15.20;99.90;;;;;;6202195;23;19927;-78
2023/11/18 12:19:47;;;;;;;0.10;0.10;;;15.20;48.00;;;;;;6202248;23;20330;-78
2023/11/18 12:22:19;;;;;;;0.10;0.10;;;15.20;1.00;;;;;;6179063;23;20021;-77
2023/11/18 12:24:58;;;;;;;0.60;0.35;;;15.20;57.10;;;;;;6174436;23;20670;-78
2023/11/18 12:27:40;;;;;;;1.00;0.20;;;15.20;99.90;;;;;;6175704;23;20431;-78
2023/11/18 12:30:18;;;;;;;0.20;0.10;;;15.20;99.90;;;;;;6205399;23;20107;-78
2023/11/18 12:33:05;;;;;;;0.10;0.10;;;15.20;99.90;;;;;;6230112;23;20024;-78
2023/11/18 12:35:48;;;;;;;0.10;0.10;;;15.20;99.90;;;;;;6234854;23;20422;-78
2023/11/18 12:38:45;;;;;;;0.57;0.30;;;15.30;99.90;;;;;;6184250;23;20070;-78
2023/11/18 12:41:37;;;;;;;0.52;0.20;;;15.30;99.90;;;;;;6234048;23;20024;-78
2023/11/18 12:44:31;;;;;;;0.22;0.20;;;15.30;99.90;;;;;;6209312;23;20020;-79
2023/11/18 12:47:14;;;;;;;0.20;0.20;;;15.40;1.00;;;;;;6234981;23;20020;-78
2023/11/18 12:49:42;;;;;;;0.10;0.10;;;15.40;99.90;;;;;;6234308;23;20064;-78
2023/11/18 12:52:11;;;;;;;0.20;0.20;;;15.50;99.90;;;;;;6209532;23;20043;-79
2023/11/18 12:54:38;;;;;;;0.15;0.15;;;15.50;1.00;;;;;;6233827;23;20418;-77
2023/11/18 12:57:06;;;;;;;0.52;0.30;;;15.60;99.90;;;;;;6209298;23;20512;-78
2023/11/18 12:59:34;;;;;;;0.70;0.30;;;15.60;99.90;;;;;;6233720;23;20024;-79
2023/11/18 13:02:04;;;;;;;0.30;0.20;;;15.60;99.90;;;;;;6208143;23;20086;-78
2023/11/18 13:04:31;;;;;;;0.20;0.20;;;15.60;1.00;;;;;;6234031;23;20071;-77
2023/11/18 13:06:59;;;;;;;0.30;0.30;;;15.60;1.00;;;;;;6235619;23;20024;-78
2023/11/18 13:09:27;;;;;;;0.35;0.22;;;15.50;1.00;;;;;;6233203;23;20024;-79
2023/11/18 13:11:58;;;;;;;0.20;0.20;;;15.60;1.00;;;;;;6209416;23;20446;-78